createdAt,value
2022-11-01T10:18:29.451Z,14.45
2022-11-01T10:21:01.222Z,14.40
2022-11-01T10:23:43.462Z,17.10
2022-11-01T10:26:17.478Z,15.10
2022-11-01T10:28:56.017Z,14.77
2022-11-01T10:31:28.596Z,15.18
2022-11-01T10:34:03.458Z,14.13
2022-11-01T10:42:14.923Z,14.63
2022-11-01T10:44:51.979Z,13.25
2022-11-01T10:47:23.083Z,13.63
2022-11-01T10:50:05.971Z,12.13
2022-11-01T10:52:47.760Z,19.27
2022-11-01T10:55:22.675Z,16.23
2022-11-01T10:57:58.734Z,16.75
2022-11-01T11:00:28.610Z,18.13
2022-11-01T11:03:02.170Z,13.75
2022-11-01T11:05:34.174Z,13.70
2022-11-01T11:08:07.444Z,13.80
2022-11-01T11:10:37.683Z,14.65
2022-11-01T11:13:09.163Z,13.13
2022-11-01T11:15:44.536Z,14.93
2022-11-01T11:21:00.428Z,15.20
2022-11-01T11:23:33.182Z,14.00
2022-11-01T11:26:04.201Z,14.43
2022-11-01T11:28:35.686Z,15.23
2022-11-01T11:31:15.238Z,15.20
2022-11-01T11:33:51.469Z,14.57
2022-11-01T11:36:31.162Z,15.77
2022-11-01T11:39:02.752Z,15.68
2022-11-01T11:41:35.328Z,16.35
2022-11-01T11:44:05.202Z,16.73
2022-11-01T11:46:34.537Z,17.77
2022-11-01T11:49:07.206Z,34.70
2022-11-01T11:51:39.370Z,21.55
2022-11-01T11:54:26.029Z,24.52
2022-11-01T11:57:11.685Z,18.23
2022-11-01T11:59:42.632Z,15.73
2022-11-01T12:02:20.944Z,16.40
2022-11-01T12:04:56.350Z,17.40
2022-11-01T12:07:30.626Z,17.02
2022-11-01T12:10:03.341Z,17.03
2022-11-01T12:12:34.793Z,15.63
2022-11-01T12:15:04.774Z,16.90
2022-11-01T12:17:37.101Z,15.23
2022-11-01T12:20:20.077Z,16.50
2022-11-01T12:22:56.080Z,12.80
2022-11-01T12:25:26.765Z,13.40
2022-11-01T12:28:04.863Z,11.70
2022-11-01T12:30:37.007Z,12.13
2022-11-01T12:33:21.432Z,13.02
2022-11-01T12:35:54.341Z,11.15
2022-11-01T12:38:41.143Z,10.57
2022-11-01T12:41:35.990Z,13.10
2022-11-01T12:44:21.966Z,11.93
2022-11-01T12:46:57.403Z,11.93
2022-11-01T12:49:32.851Z,11.52
2022-11-01T12:52:09.114Z,10.25
2022-11-01T12:54:45.578Z,10.57
2022-11-01T12:57:17.090Z,10.32
2022-11-01T12:59:48.046Z,10.43
2022-11-01T13:02:44.049Z,11.05
2022-11-01T13:05:19.970Z,10.68
2022-11-01T13:08:01.712Z,9.50
2022-11-01T13:10:35.503Z,8.88
2022-11-01T13:13:17.923Z,8.98
2022-11-01T13:16:00.210Z,10.35
2022-11-01T13:18:40.642Z,10.48
2022-11-01T13:21:18.999Z,10.20
2022-11-01T13:23:54.945Z,9.10
2022-11-01T13:26:29.481Z,10.07
2022-11-01T13:29:17.708Z,10.43
2022-11-01T13:32:02.043Z,10.93
2022-11-01T13:34:40.113Z,11.93
2022-11-01T13:37:16.436Z,11.30
2022-11-01T13:39:59.010Z,11.77
2022-11-01T13:42:36.343Z,27.63
2022-11-01T13:45:29.407Z,14.90
2022-11-01T13:48:08.907Z,11.38
2022-11-01T13:51:10.087Z,13.18
2022-11-01T13:53:46.802Z,11.73
2022-11-01T13:56:20.699Z,10.82
2022-11-01T13:58:52.081Z,11.90
2022-11-01T14:01:31.617Z,12.00
2022-11-01T14:04:25.653Z,11.20
2022-11-01T14:07:14.444Z,11.57
2022-11-01T14:09:48.629Z,13.05
2022-11-01T14:12:40.968Z,15.18
2022-11-01T14:15:22.145Z,17.02
2022-11-01T14:18:03.827Z,19.52
2022-11-01T14:20:47.974Z,18.63
2022-11-01T14:23:54.227Z,16.10
2022-11-01T14:26:39.113Z,14.27
2022-11-01T14:29:13.555Z,18.73
2022-11-01T14:31:47.446Z,22.13
2022-11-01T14:34:36.194Z,51.03
2022-11-01T14:37:16.578Z,33.28
2022-11-01T14:40:18.516Z,16.60
2022-11-01T14:42:49.971Z,18.00
2022-11-01T14:45:29.997Z,21.27
2022-11-01T14:48:07.150Z,17.60
2022-11-01T14:50:48.032Z,20.45
2022-11-01T14:53:24.539Z,15.38
2022-11-01T14:56:08.004Z,31.40
2022-11-01T14:58:37.361Z,21.27
2022-11-01T15:01:09.053Z,20.20
2022-11-01T15:03:39.900Z,21.75
2022-11-01T15:06:23.174Z,20.00
2022-11-01T15:08:52.783Z,83.07
2022-11-01T15:11:22.534Z,18.30
2022-11-01T15:13:53.428Z,25.95
2022-11-01T15:16:26.784Z,31.88
2022-11-01T15:19:02.586Z,45.80
2022-11-01T15:21:34.104Z,17.38
2022-11-01T15:24:04.699Z,27.13
2022-11-01T15:26:35.598Z,19.88
2022-11-01T15:29:07.120Z,18.13
2022-11-01T15:31:50.186Z,21.73
2022-11-01T15:34:26.546Z,17.92
2022-11-01T15:36:56.371Z,19.90
2022-11-01T15:39:29.014Z,20.35
2022-11-01T15:41:58.806Z,26.52
2022-11-01T15:44:29.895Z,19.35
2022-11-01T15:47:01.028Z,34.35
2022-11-01T15:49:35.810Z,17.40
2022-11-01T15:52:27.418Z,24.10
2022-11-01T15:55:03.133Z,76.10
2022-11-01T15:57:37.562Z,105.60
2022-11-01T16:00:09.728Z,29.13
2022-11-01T16:02:46.571Z,16.65
2022-11-01T16:05:23.323Z,20.40
2022-11-01T16:07:53.504Z,28.85
2022-11-01T16:10:25.369Z,23.83
2022-11-01T16:12:57.254Z,18.05
2022-11-01T16:15:29.769Z,16.58
2022-11-01T16:18:00.367Z,18.02
2022-11-01T16:20:35.177Z,16.33
2022-11-01T16:23:06.340Z,16.38
2022-11-01T16:25:38.257Z,16.50
2022-11-01T16:28:23.865Z,16.80
2022-11-01T16:30:54.887Z,16.67
2022-11-01T16:33:29.193Z,17.00
2022-11-01T16:36:01.356Z,16.73
2022-11-01T16:38:44.385Z,17.42
2022-11-01T16:41:22.166Z,19.13
2022-11-01T16:43:55.393Z,23.88
2022-11-01T16:46:26.154Z,18.80
2022-11-01T16:48:57.741Z,18.38
2022-11-01T16:51:30.487Z,18.65
2022-11-01T16:54:01.509Z,17.25
2022-11-01T16:56:37.025Z,17.70
2022-11-01T16:59:17.458Z,16.35
2022-11-01T17:01:47.843Z,18.02
2022-11-01T17:04:18.650Z,19.40
2022-11-01T17:06:49.600Z,17.88
2022-11-01T17:09:20.878Z,20.60
2022-11-01T17:11:53.526Z,20.50
2022-11-01T17:14:23.476Z,18.55
2022-11-01T17:16:56.287Z,18.00
2022-11-01T17:19:29.829Z,25.23
2022-11-01T17:22:04.026Z,17.48
2022-11-01T17:24:34.233Z,22.60
2022-11-01T17:27:07.438Z,21.40
2022-11-01T17:29:37.135Z,19.55
2022-11-01T17:32:09.744Z,19.17
2022-11-01T17:34:39.906Z,19.33
2022-11-01T17:37:17.163Z,17.98
2022-11-01T17:39:46.737Z,19.13
2022-11-01T17:42:16.022Z,20.30
2022-11-01T17:45:06.426Z,20.08
2022-11-01T17:47:38.021Z,19.35
2022-11-01T17:50:11.952Z,19.48
2022-11-01T17:52:44.649Z,18.17
2022-11-01T17:55:14.613Z,17.80
2022-11-01T17:57:46.163Z,17.98
2022-11-01T18:00:17.042Z,17.50
2022-11-01T18:02:49.158Z,18.70
2022-11-01T18:05:18.773Z,18.23
2022-11-01T18:07:51.031Z,16.83
2022-11-01T18:10:22.884Z,17.10
2022-11-01T18:13:14.322Z,16.98
2022-11-01T18:15:50.594Z,16.13
2022-11-01T18:18:40.859Z,16.70
2022-11-01T18:21:18.761Z,16.17
2022-11-01T18:23:51.335Z,16.58
2022-11-01T18:26:23.603Z,16.20
2022-11-01T18:28:59.860Z,16.67
2022-11-01T18:31:35.405Z,17.70
2022-11-01T18:34:14.483Z,15.35
2022-11-01T18:36:53.363Z,16.65
2022-11-01T18:39:36.363Z,19.02
2022-11-01T18:42:10.265Z,18.75
2022-11-01T18:44:40.105Z,17.35
2022-11-01T18:47:16.633Z,17.27
2022-11-01T18:49:46.757Z,16.92
2022-11-01T18:52:19.187Z,18.10
2022-11-01T18:54:56.739Z,18.88
2022-11-01T18:57:29.053Z,17.20
2022-11-01T18:59:58.986Z,17.17
2022-11-01T19:02:30.771Z,16.73
2022-11-01T19:05:15.313Z,17.70
2022-11-01T19:08:09.523Z,19.02
2022-11-01T19:10:37.618Z,18.35
2022-11-01T19:13:13.664Z,22.48
2022-11-01T19:15:44.086Z,24.52
2022-11-01T19:18:20.528Z,29.27
2022-11-01T19:20:53.101Z,23.05
2022-11-01T19:23:25.874Z,21.25
2022-11-01T19:25:56.647Z,22.50
2022-11-01T19:28:29.608Z,19.65
2022-11-01T19:31:05.053Z,21.15
2022-11-01T19:33:38.526Z,27.23
2022-11-01T19:36:15.883Z,23.00
2022-11-01T19:38:46.391Z,30.35
2022-11-01T19:41:19.892Z,39.13
2022-11-01T19:43:52.405Z,33.60
2022-11-01T19:46:24.442Z,38.72
2022-11-01T19:48:55.951Z,33.22
2022-11-01T19:51:27.179Z,32.88
2022-11-01T19:53:57.091Z,27.58
2022-11-01T19:56:30.131Z,25.75
2022-11-01T19:59:03.695Z,25.13
2022-11-01T20:01:45.921Z,26.60
2022-11-01T20:04:29.194Z,26.63
2022-11-01T20:07:01.449Z,36.65
2022-11-01T20:09:35.673Z,35.88
2022-11-01T20:12:06.808Z,35.55
2022-11-01T20:14:36.515Z,33.75
2022-11-01T20:17:06.805Z,32.90
2022-11-01T20:19:37.062Z,33.92
2022-11-01T20:22:06.998Z,33.47
2022-11-01T20:24:36.903Z,34.92
2022-11-01T20:27:08.756Z,34.83
2022-11-01T20:29:38.457Z,42.63
2022-11-01T20:32:07.948Z,56.30
2022-11-01T20:34:38.360Z,43.85
2022-11-01T20:37:27.529Z,38.63
2022-11-01T20:39:57.756Z,34.28
2022-11-01T20:42:28.706Z,34.60
2022-11-01T20:44:58.305Z,32.50
2022-11-01T20:47:27.685Z,36.53
2022-11-01T20:49:57.372Z,34.80
2022-11-01T20:52:39.160Z,36.35
2022-11-01T20:55:11.485Z,41.13
2022-11-01T20:57:42.453Z,37.70
2022-11-01T21:00:14.487Z,40.53
2022-11-01T21:02:44.475Z,42.22
2022-11-01T21:05:23.249Z,40.20
2022-11-01T21:07:59.122Z,42.65
2022-11-01T21:10:33.326Z,41.15
2022-11-01T21:13:08.175Z,38.25
2022-11-01T21:15:39.498Z,40.60
2022-11-01T21:18:38.103Z,37.72
2022-11-01T21:21:32.815Z,38.47
2022-11-01T21:24:33.615Z,34.58
2022-11-01T21:30:19.455Z,35.45
2022-11-01T21:32:49.308Z,37.08
2022-11-01T21:35:40.936Z,35.70
2022-11-01T21:38:36.886Z,37.30
2022-11-01T21:41:31.686Z,36.58
2022-11-01T21:44:15.397Z,35.67
2022-11-01T21:46:49.122Z,36.92
2022-11-01T21:49:27.123Z,35.90
2022-11-01T21:51:59.021Z,36.70
2022-11-01T21:54:29.829Z,41.20
2022-11-01T21:56:59.622Z,37.70
2022-11-01T21:59:29.762Z,38.30
2022-11-01T22:02:01.521Z,35.67
2022-11-01T22:04:32.524Z,36.25
2022-11-01T22:07:03.038Z,30.58
2022-11-01T22:09:33.430Z,29.25
2022-11-01T22:12:03.115Z,25.33
2022-11-01T22:14:32.774Z,21.00
2022-11-01T22:17:03.491Z,21.02
2022-11-01T22:19:33.031Z,22.08
2022-11-01T22:22:02.398Z,19.15
2022-11-01T22:24:31.901Z,19.98
2022-11-01T22:27:02.189Z,19.58
2022-11-01T22:29:31.630Z,18.13
2022-11-01T22:32:02.462Z,18.92
2022-11-01T22:34:31.981Z,17.77
2022-11-01T22:37:02.155Z,18.13
2022-11-01T22:39:32.170Z,16.65
2022-11-01T22:42:02.792Z,15.90
2022-11-01T22:44:33.618Z,14.57
2022-11-01T22:47:06.249Z,13.80
2022-11-01T22:49:38.510Z,12.25
2022-11-01T22:52:20.572Z,12.60
2022-11-01T22:54:51.921Z,11.57
2022-11-01T22:57:24.121Z,9.25
2022-11-01T22:59:56.433Z,9.35
2022-11-01T23:02:32.005Z,9.55
2022-11-01T23:05:22.812Z,8.52
2022-11-01T23:07:53.765Z,8.48
2022-11-01T23:10:26.933Z,8.63
2022-11-01T23:13:20.020Z,7.43
2022-11-01T23:15:49.587Z,7.95
2022-11-01T23:18:23.459Z,7.35
2022-11-01T23:20:57.772Z,7.57
2022-11-01T23:23:27.355Z,7.63
2022-11-01T23:26:00.397Z,7.68
2022-11-01T23:28:30.300Z,7.47
2022-11-01T23:31:00.578Z,7.60
2022-11-01T23:33:40.790Z,7.75
2022-11-01T23:36:19.609Z,8.40
2022-11-01T23:38:52.463Z,8.82
2022-11-01T23:41:24.088Z,8.65
2022-11-01T23:43:56.048Z,8.00
2022-11-01T23:46:26.621Z,7.13
2022-11-01T23:49:02.145Z,6.97
2022-11-01T23:51:32.529Z,7.68
2022-11-01T23:54:02.181Z,7.30
2022-11-01T23:56:32.814Z,6.90
2022-11-01T23:59:05.269Z,7.07
